Time;durP1;ratioP1;P1;durP2;ratioP2;P2;SDS_P1;SDS_P2;PMS_P1;PMS_P2;Temp;Humidity;BMP_temperature;BMP_pressure;BME280_temperature;BME280_humidity;BME280_pressure;Samples;Min_cycle;Max_cycle;Signal;HPM_P1;HPM_P2
2023/04/04 00:01:44;;;;;;;9.52;9.02;;;;;;;;;;5111019;28;20114;-63
2023/04/04 00:04:09;;;;;;;9.55;9.05;;;;;;;;;;5109345;28;20438;-62
2023/04/04 00:06:35;;;;;;;9.35;8.90;;;;;;;;;;5113047;28;20032;-63
2023/04/04 00:09:01;;;;;;;9.93;9.43;;;;;;;;;;5108619;28;20028;-64
2023/04/04 00:11:27;;;;;;;9.85;9.35;;;;;;;;;;5093242;28;20012;-63
2023/04/04 00:13:52;;;;;;;9.82;9.32;;;;;;;;;;5113432;28;20103;-63
2023/04/04 00:16:17;;;;;;;9.40;8.90;;;;;;;;;;5115829;28;20016;-64
2023/04/04 00:18:43;;;;;;;9.60;9.10;;;;;;;;;;5110504;28;20498;-64
2023/04/04 00:21:08;;;;;;;10.10;9.60;;;;;;;;;;5111116;28;20023;-65
2023/04/04 00:23:33;;;;;;;9.88;9.38;;;;;;;;;;5108547;27;20107;-64
2023/04/04 00:25:58;;;;;;;9.57;9.07;;;;;;;;;;5107732;27;20069;-64
2023/04/04 00:28:24;;;;;;;9.68;9.18;;;;;;;;;;5115302;28;20477;-63
2023/04/04 00:30:49;;;;;;;9.50;9.02;;;;;;;;;;5114898;28;20101;-64
2023/04/04 00:33:14;;;;;;;9.60;9.10;;;;;;;;;;5115111;28;20118;-63
2023/04/04 00:35:40;;;;;;;10.60;10.00;;;;;;;;;;5113794;28;20027;-62
2023/04/04 00:38:06;;;;;;;9.93;9.43;;;;;;;;;;5114807;28;20390;-64
2023/04/04 00:40:32;;;;;;;9.70;9.20;;;;;;;;;;5115796;27;20055;-63
2023/04/04 00:42:59;;;;;;;9.82;9.32;;;;;;;;;;5108790;28;20443;-63
2023/04/04 00:45:26;;;;;;;9.70;9.20;;;;;;;;;;5114395;28;20039;-63
2023/04/04 00:47:53;;;;;;;9.80;9.30;;;;;;;;;;5106963;27;20016;-63
2023/04/04 00:50:18;;;;;;;10.00;9.50;;;;;;;;;;5111525;28;20030;-63
2023/04/04 00:52:44;;;;;;;9.82;9.32;;;;;;;;;;5114313;28;20370;-63
2023/04/04 00:55:09;;;;;;;9.88;9.38;;;;;;;;;;5115204;28;20442;-63
2023/04/04 00:57:35;;;;;;;9.95;9.45;;;;;;;;;;5116578;27;20439;-63
2023/04/04 01:00:01;;;;;;;9.93;9.43;;;;;;;;;;5111431;28;20044;-63
2023/04/04 01:02:27;;;;;;;10.32;9.75;;;;;;;;;;5114453;28;20016;-63
2023/04/04 01:04:52;;;;;;;9.90;9.40;;;;;;;;;;5114626;28;20024;-63
2023/04/04 01:07:18;;;;;;;9.68;9.18;;;;;;;;;;5114849;28;20019;-63
2023/04/04 01:09:43;;;;;;;9.70;9.20;;;;;;;;;;5108884;28;20023;-63
2023/04/04 01:12:09;;;;;;;10.57;9.98;;;;;;;;;;5114447;28;20392;-64
2023/04/04 01:14:34;;;;;;;10.25;9.73;;;;;;;;;;5113578;27;20024;-64
2023/04/04 01:17:01;;;;;;;9.50;9.00;;;;;;;;;;5102291;28;20035;-64
2023/04/04 01:19:35;;;;;;;10.05;9.55;;;;;;;;;;5112651;28;20049;-62
2023/04/04 01:22:01;;;;;;;9.68;9.18;;;;;;;;;;5108135;28;20027;-63
2023/04/04 01:24:31;;;;;;;10.65;10.05;;;;;;;;;;5103011;28;20020;-62
2023/04/04 01:26:56;;;;;;;9.73;9.23;;;;;;;;;;5111845;28;20059;-64
2023/04/04 01:29:22;;;;;;;9.93;9.43;;;;;;;;;;5113948;28;20051;-63
2023/04/04 01:31:49;;;;;;;9.90;9.40;;;;;;;;;;5113870;27;20026;-63
2023/04/04 01:34:18;;;;;;;10.15;9.63;;;;;;;;;;5113867;28;20526;-63
2023/04/04 01:36:43;;;;;;;10.55;9.95;;;;;;;;;;5113945;28;20479;-63
2023/04/04 01:39:14;;;;;;;9.65;9.15;;;;;;;;;;5114668;28;20016;-64
2023/04/04 01:41:40;;;;;;;9.98;9.48;;;;;;;;;;5106191;28;20016;-63
2023/04/04 01:44:05;;;;;;;9.07;8.68;;;;;;;;;;5112647;28;20030;-63
2023/04/04 01:46:31;;;;;;;10.02;9.52;;;;;;;;;;5113846;28;20016;-62
2023/04/04 01:48:57;;;;;;;9.98;9.48;;;;;;;;;;5114197;27;20376;-63
2023/04/04 01:51:22;;;;;;;10.48;9.88;;;;;;;;;;5112094;28;20094;-63
2023/04/04 01:53:48;;;;;;;9.93;9.43;;;;;;;;;;5114016;27;20015;-63
2023/04/04 01:56:13;;;;;;;9.70;9.20;;;;;;;;;;5114575;27;20473;-63
2023/04/04 01:58:38;;;;;;;10.20;9.68;;;;;;;;;;5107918;28;20040;-62
2023/04/04 02:01:04;;;;;;;9.80;9.30;;;;;;;;;;5098312;28;20039;-63
2023/04/04 02:03:29;;;;;;;9.75;9.25;;;;;;;;;;5094799;28;20016;-63
2023/04/04 02:05:54;;;;;;;9.60;9.10;;;;;;;;;;5114082;27;20038;-63
2023/04/04 02:08:20;;;;;;;9.70;9.20;;;;;;;;;;5113385;28;20065;-63
2023/04/04 02:10:45;;;;;;;10.20;9.65;;;;;;;;;;5113017;28;20026;-63
2023/04/04 02:13:11;;;;;;;10.10;9.60;;;;;;;;;;5102179;28;20110;-63
2023/04/04 02:15:36;;;;;;;9.80;9.30;;;;;;;;;;5109857;28;20108;-63
2023/04/04 02:18:02;;;;;;;9.63;9.13;;;;;;;;;;5112441;28;20054;-63
2023/04/04 02:20:27;;;;;;;9.82;9.32;;;;;;;;;;5112930;28;20023;-63
2023/04/04 02:22:53;;;;;;;9.60;9.10;;;;;;;;;;5110952;27;20028;-63
2023/04/04 02:25:19;;;;;;;9.77;9.27;;;;;;;;;;5112815;28;20022;-63
2023/04/04 02:27:45;;;;;;;10.07;9.57;;;;;;;;;;5112823;28;20379;-63
2023/04/04 02:30:11;;;;;;;9.85;9.35;;;;;;;;;;5112947;28;20026;-63
2023/04/04 02:32:37;;;;;;;9.45;8.95;;;;;;;;;;5107937;28;20090;-63
2023/04/04 02:35:03;;;;;;;9.90;9.40;;;;;;;;;;5111928;28;20031;-62
2023/04/04 02:37:28;;;;;;;10.02;9.52;;;;;;;;;;5106706;28;20031;-63
2023/04/04 02:39:53;;;;;;;9.85;9.35;;;;;;;;;;5094177;28;20382;-62
2023/04/04 02:42:19;;;;;;;10.35;9.75;;;;;;;;;;5112852;28;20099;-64
2023/04/04 02:44:44;;;;;;;9.60;9.10;;;;;;;;;;5112601;28;20475;-63
2023/04/04 02:47:09;;;;;;;9.57;9.07;;;;;;;;;;5111347;28;20038;-63
2023/04/04 02:49:35;;;;;;;10.02;9.52;;;;;;;;;;5112470;28;20027;-63
2023/04/04 02:52:00;;;;;;;9.80;9.30;;;;;;;;;;5111166;28;20111;-63
2023/04/04 02:54:25;;;;;;;9.80;9.30;;;;;;;;;;5112311;28;20019;-63
2023/04/04 02:56:51;;;;;;;9.95;9.45;;;;;;;;;;5113716;28;20030;-62
2023/04/04 02:59:16;;;;;;;9.85;9.35;;;;;;;;;;5112245;28;20086;-63
2023/04/04 03:01:42;;;;;;;10.32;9.77;;;;;;;;;;5112087;28;20047;-63
2023/04/04 03:04:08;;;;;;;10.15;9.65;;;;;;;;;;5109006;28;20027;-63
2023/04/04 03:06:33;;;;;;;11.10;10.43;;;;;;;;;;5103023;28;20080;-63
2023/04/04 03:08:59;;;;;;;10.50;9.90;;;;;;;;;;5108355;28;20020;-63
2023/04/04 03:11:24;;;;;;;10.30;9.70;;;;;;;;;;5111828;28;20471;-63
2023/04/04 03:13:54;;;;;;;9.88;9.38;;;;;;;;;;5111334;27;20084;-63
2023/04/04 03:16:20;;;;;;;10.88;10.27;;;;;;;;;;5111698;28;20045;-64
2023/04/04 03:18:45;;;;;;;10.98;10.38;;;;;;;;;;5111688;28;20409;-63
2023/04/04 03:21:11;;;;;;;10.52;9.93;;;;;;;;;;5104702;28;20023;-63
2023/04/04 03:23:37;;;;;;;10.25;9.68;;;;;;;;;;5111354;28;20028;-64
2023/04/04 03:26:02;;;;;;;9.55;9.05;;;;;;;;;;5109734;28;20756;-63
2023/04/04 03:28:28;;;;;;;10.25;9.68;;;;;;;;;;5111439;28;20020;-63
2023/04/04 03:30:53;;;;;;;10.48;9.88;;;;;;;;;;5118938;28;20071;-63
2023/04/04 03:33:18;;;;;;;10.52;9.93;;;;;;;;;;5110572;28;20072;-63
2023/04/04 03:35:44;;;;;;;10.35;9.75;;;;;;;;;;5101799;28;20470;-63
2023/04/04 03:38:09;;;;;;;10.40;9.80;;;;;;;;;;5108745;28;20027;-63
2023/04/04 03:40:35;;;;;;;10.38;9.85;;;;;;;;;;5105233;28;20028;-63
2023/04/04 03:43:01;;;;;;;10.30;9.75;;;;;;;;;;5110546;28;20028;-63
2023/04/04 03:45:27;;;;;;;10.00;9.50;;;;;;;;;;5108626;28;20028;-63
2023/04/04 03:47:52;;;;;;;10.02;9.52;;;;;;;;;;5106080;28;20042;-64
2023/04/04 03:50:17;;;;;;;10.15;9.65;;;;;;;;;;5115734;28;20027;-63
2023/04/04 03:52:43;;;;;;;10.55;9.95;;;;;;;;;;5114882;28;20080;-63
2023/04/04 03:55:08;;;;;;;11.27;10.60;;;;;;;;;;5123297;27;20020;-63
2023/04/04 03:57:34;;;;;;;10.63;10.02;;;;;;;;;;5106988;28;20111;-63
2023/04/04 04:00:00;;;;;;;9.45;8.98;;;;;;;;;;5113022;28;20097;-63
2023/04/04 04:02:25;;;;;;;10.18;9.63;;;;;;;;;;5115872;28;20020;-63
2023/04/04 04:04:50;;;;;;;9.80;9.30;;;;;;;;;;5105134;27;20023;-63
2023/04/04 04:07:16;;;;;;;10.52;9.93;;;;;;;;;;5113134;28;20015;-62
2023/04/04 04:09:41;;;;;;;10.63;10.02;;;;;;;;;;5115416;28;20055;-64
2023/04/04 04:12:06;;;;;;;10.00;9.50;;;;;;;;;;5115753;28;20462;-63
2023/04/04 04:14:32;;;;;;;11.20;10.50;;;;;;;;;;5114414;27;20092;-64
2023/04/04 04:16:57;;;;;;;10.48;9.88;;;;;;;;;;5108214;28;20016;-63
2023/04/04 04:19:22;;;;;;;10.38;9.77;;;;;;;;;;5114611;28;20031;-63
2023/04/04 04:21:48;;;;;;;10.80;10.20;;;;;;;;;;5114842;27;20030;-63
2023/04/04 04:24:13;;;;;;;9.70;9.20;;;;;;;;;;5115333;28;20055;-63
2023/04/04 04:26:38;;;;;;;9.68;9.18;;;;;;;;;;5115037;28;20100;-63
2023/04/04 04:29:03;;;;;;;9.60;9.10;;;;;;;;;;5114815;28;20018;-63
2023/04/04 04:31:29;;;;;;;10.10;9.60;;;;;;;;;;5112549;28;20043;-63
2023/04/04 04:33:54;;;;;;;10.85;10.23;;;;;;;;;;5112891;28;20051;-63
2023/04/04 04:36:19;;;;;;;9.93;9.43;;;;;;;;;;5114919;27;20015;-64
2023/04/04 04:38:45;;;;;;;9.85;9.35;;;;;;;;;;5115643;27;20031;-64
2023/04/04 04:41:10;;;;;;;9.70;9.20;;;;;;;;;;5114793;28;20034;-64
2023/04/04 04:43:36;;;;;;;10.55;9.95;;;;;;;;;;5114668;28;20015;-64
2023/04/04 04:46:01;;;;;;;10.70;10.10;;;;;;;;;;5114452;28;20016;-63
2023/04/04 04:48:27;;;;;;;11.13;10.48;;;;;;;;;;5112209;28;20015;-62
2023/04/04 04:50:52;;;;;;;10.75;10.15;;;;;;;;;;5113096;28;20031;-62
2023/04/04 04:53:17;;;;;;;10.57;9.98;;;;;;;;;;5114734;28;20023;-61
2023/04/04 04:55:45;;;;;;;10.50;9.90;;;;;;;;;;5115033;27;20458;-63
2023/04/04 04:58:10;;;;;;;10.25;9.73;;;;;;;;;;5109325;28;20028;-62
2023/04/04 05:00:36;;;;;;;11.57;10.88;;;;;;;;;;5095409;28;20039;-61
2023/04/04 05:03:02;;;;;;;10.30;9.75;;;;;;;;;;5113539;27;20015;-61
2023/04/04 05:05:27;;;;;;;9.93;9.43;;;;;;;;;;5113263;27;20020;-61
2023/04/04 05:07:52;;;;;;;9.85;9.35;;;;;;;;;;5112636;28;20019;-61
2023/04/04 05:10:18;;;;;;;11.52;10.82;;;;;;;;;;5114244;28;20076;-61
2023/04/04 05:12:43;;;;;;;11.60;10.90;;;;;;;;;;5113941;27;20032;-61
2023/04/04 05:15:10;;;;;;;10.82;10.23;;;;;;;;;;5114121;28;20019;-61
2023/04/04 05:17:35;;;;;;;10.38;9.82;;;;;;;;;;5114562;28;20043;-61
2023/04/04 05:20:00;;;;;;;10.13;9.63;;;;;;;;;;5114022;28;20020;-62
2023/04/04 05:22:27;;;;;;;10.90;10.27;;;;;;;;;;5108717;28;20043;-62
2023/04/04 05:24:52;;;;;;;10.63;10.02;;;;;;;;;;5111656;28;20031;-62
2023/04/04 05:27:17;;;;;;;12.13;11.32;;;;;;;;;;5103848;28;20024;-62
2023/04/04 05:29:43;;;;;;;9.90;9.40;;;;;;;;;;5114464;27;20043;-62
2023/04/04 05:32:08;;;;;;;9.85;9.35;;;;;;;;;;5114117;28;20020;-62
2023/04/04 05:34:33;;;;;;;9.55;9.05;;;;;;;;;;5113930;28;20031;-61
2023/04/04 05:36:59;;;;;;;10.73;10.07;;;;;;;;;;5112731;28;20642;-60
2023/04/04 05:39:24;;;;;;;9.52;9.02;;;;;;;;;;5114144;28;20512;-61
2023/04/04 05:41:49;;;;;;;10.68;10.07;;;;;;;;;;5103318;28;20027;-61
2023/04/04 05:44:15;;;;;;;10.00;9.50;;;;;;;;;;5113936;28;20435;-62
2023/04/04 05:46:41;;;;;;;10.02;9.52;;;;;;;;;;5108189;27;20525;-62
2023/04/04 05:49:06;;;;;;;10.68;10.07;;;;;;;;;;5113234;27;20058;-62
2023/04/04 05:51:31;;;;;;;10.70;10.10;;;;;;;;;;5113121;28;20090;-62
2023/04/04 05:53:57;;;;;;;10.15;9.65;;;;;;;;;;5111711;28;20012;-63
2023/04/04 05:56:23;;;;;;;9.73;9.23;;;;;;;;;;5107321;28;20024;-63
2023/04/04 05:58:49;;;;;;;10.30;9.70;;;;;;;;;;5109250;28;20031;-61
2023/04/04 06:01:14;;;;;;;9.90;9.40;;;;;;;;;;5112717;28;20491;-63
2023/04/04 06:03:40;;;;;;;11.00;10.40;;;;;;;;;;5106548;28;20106;-63
2023/04/04 06:06:05;;;;;;;9.50;9.00;;;;;;;;;;5107176;28;20015;-61
2023/04/04 06:08:30;;;;;;;9.88;9.38;;;;;;;;;;5107947;28;20095;-61
2023/04/04 06:10:56;;;;;;;9.60;9.10;;;;;;;;;;5105668;28;20072;-62
2023/04/04 06:13:21;;;;;;;10.90;10.30;;;;;;;;;;5112763;28;20030;-62
2023/04/04 06:15:46;;;;;;;12.90;12.02;;;;;;;;;;5105490;27;20027;-63
2023/04/04 06:18:12;;;;;;;12.68;11.82;;;;;;;;;;5111380;27;20026;-63
2023/04/04 06:20:37;;;;;;;12.13;11.32;;;;;;;;;;5106021;27;20563;-67
2023/04/04 06:23:03;;;;;;;11.73;11.02;;;;;;;;;;5104662;28;20483;-65
2023/04/04 06:25:29;;;;;;;12.02;11.23;;;;;;;;;;5116013;27;20073;-65
2023/04/04 06:27:55;;;;;;;12.45;11.63;;;;;;;;;;5111266;27;20024;-65
2023/04/04 06:30:20;;;;;;;12.10;11.32;;;;;;;;;;5105633;27;20036;-65
2023/04/04 06:32:45;;;;;;;11.30;10.60;;;;;;;;;;5116433;27;20096;-65
2023/04/04 06:35:11;;;;;;;10.60;10.00;;;;;;;;;;5105950;28;20016;-65
2023/04/04 06:37:36;;;;;;;10.55;9.95;;;;;;;;;;5111660;27;20027;-66
2023/04/04 06:40:01;;;;;;;11.65;10.93;;;;;;;;;;5121089;27;20466;-65
2023/04/04 06:42:27;;;;;;;11.57;10.88;;;;;;;;;;5111658;27;20076;-66
2023/04/04 06:44:52;;;;;;;11.50;10.80;;;;;;;;;;5116882;27;20026;-64
2023/04/04 06:47:17;;;;;;;11.63;10.93;;;;;;;;;;5114082;27;20390;-64
2023/04/04 06:49:42;;;;;;;11.63;10.93;;;;;;;;;;5116870;27;20062;-65
2023/04/04 06:52:08;;;;;;;11.52;10.82;;;;;;;;;;5116741;27;20076;-67
2023/04/04 06:54:34;;;;;;;11.55;10.85;;;;;;;;;;5117089;27;20036;-64
2023/04/04 06:57:00;;;;;;;11.52;10.82;;;;;;;;;;5107434;27;20019;-65
2023/04/04 06:59:25;;;;;;;10.27;9.75;;;;;;;;;;5095997;28;20038;-66
2023/04/04 07:01:50;;;;;;;11.93;11.18;;;;;;;;;;5112771;27;20019;-67
2023/04/04 07:04:21;;;;;;;11.13;10.45;;;;;;;;;;5108490;27;20106;-64
2023/04/04 07:06:48;;;;;;;11.70;11.00;;;;;;;;;;5110975;27;20055;-64
2023/04/04 07:09:13;;;;;;;11.45;10.75;;;;;;;;;;5109098;28;20205;-64
2023/04/04 07:11:38;;;;;;;11.35;10.65;;;;;;;;;;5104868;27;20098;-63
2023/04/04 07:14:04;;;;;;;11.38;10.68;;;;;;;;;;5113317;27;20027;-65
2023/04/04 07:16:30;;;;;;;11.70;11.00;;;;;;;;;;5104549;27;20024;-63
2023/04/04 07:18:55;;;;;;;12.35;11.55;;;;;;;;;;5118197;27;20083;-62
2023/04/04 07:21:21;;;;;;;11.65;10.95;;;;;;;;;;5114441;28;20065;-64
2023/04/04 07:23:46;;;;;;;12.00;11.25;;;;;;;;;;5096249;27;20413;-67
2023/04/04 07:26:11;;;;;;;10.95;10.35;;;;;;;;;;5113915;27;20015;-64
2023/04/04 07:28:37;;;;;;;12.05;11.30;;;;;;;;;;5116608;28;20015;-65
2023/04/04 07:31:02;;;;;;;11.35;10.65;;;;;;;;;;5113526;28;20015;-65
2023/04/04 07:33:28;;;;;;;10.65;10.05;;;;;;;;;;5110288;28;20515;-64
2023/04/04 07:35:53;;;;;;;11.35;10.65;;;;;;;;;;5108348;28;20027;-64
2023/04/04 07:38:18;;;;;;;12.15;11.38;;;;;;;;;;5107665;28;20039;-65
2023/04/04 07:40:44;;;;;;;10.95;10.35;;;;;;;;;;5103005;28;20080;-66
2023/04/04 07:43:09;;;;;;;12.02;11.27;;;;;;;;;;5106908;28;20037;-65
2023/04/04 07:45:35;;;;;;;12.07;11.27;;;;;;;;;;5113648;28;20015;-66
2023/04/04 07:48:00;;;;;;;11.18;10.57;;;;;;;;;;5115574;28;20016;-64
2023/04/04 07:50:26;;;;;;;11.50;10.80;;;;;;;;;;5099141;28;20026;-65
2023/04/04 07:52:53;;;;;;;11.68;10.98;;;;;;;;;;5114641;28;20579;-65
2023/04/04 07:55:19;;;;;;;11.57;10.88;;;;;;;;;;5117072;28;20150;-65
2023/04/04 07:57:45;;;;;;;12.25;11.45;;;;;;;;;;5104021;28;20106;-64
2023/04/04 08:00:10;;;;;;;12.90;12.00;;;;;;;;;;5106387;28;20047;-63
2023/04/04 08:02:36;;;;;;;12.05;11.25;;;;;;;;;;5116261;28;20545;-65
2023/04/04 08:05:01;;;;;;;14.45;13.38;;;;;;;;;;5104537;28;20389;-64
2023/04/04 08:07:27;;;;;;;11.75;11.05;;;;;;;;;;5106762;28;20054;-64
2023/04/04 08:09:52;;;;;;;11.05;10.45;;;;;;;;;;5103581;28;20061;-66
2023/04/04 08:12:18;;;;;;;12.88;11.98;;;;;;;;;;5087806;28;20026;-64
2023/04/04 08:14:43;;;;;;;12.60;11.80;;;;;;;;;;5109912;28;20123;-66
2023/04/04 08:17:09;;;;;;;13.23;12.30;;;;;;;;;;5114298;28;20543;-65
2023/04/04 08:19:34;;;;;;;13.13;12.23;;;;;;;;;;5104366;28;20487;-64
2023/04/04 08:22:00;;;;;;;13.05;12.15;;;;;;;;;;5108287;28;20102;-63
2023/04/04 08:24:25;;;;;;;11.35;10.68;;;;;;;;;;5101171;28;20849;-64
2023/04/04 08:26:51;;;;;;;12.93;12.02;;;;;;;;;;5116362;28;20035;-64
2023/04/04 08:29:16;;;;;;;10.50;9.90;;;;;;;;;;5106979;28;20073;-63
2023/04/04 08:31:42;;;;;;;12.13;11.35;;;;;;;;;;5100629;28;20066;-65
2023/04/04 08:34:07;;;;;;;12.30;11.50;;;;;;;;;;5108732;28;20481;-67
2023/04/04 08:36:33;;;;;;;12.88;11.98;;;;;;;;;;5111586;27;20023;-65
2023/04/04 08:38:58;;;;;;;12.65;11.77;;;;;;;;;;5104415;28;20023;-65
2023/04/04 08:41:24;;;;;;;11.05;10.45;;;;;;;;;;5102306;27;20421;-65
2023/04/04 08:43:53;;;;;;;12.35;11.55;;;;;;;;;;5108754;27;20072;-64
2023/04/04 08:46:20;;;;;;;12.10;11.32;;;;;;;;;;5112722;27;20020;-64
2023/04/04 08:48:47;;;;;;;12.82;11.98;;;;;;;;;;5106109;28;20020;-63
2023/04/04 08:51:12;;;;;;;12.20;11.40;;;;;;;;;;5118251;27;20035;-63
2023/04/04 08:53:38;;;;;;;11.70;11.00;;;;;;;;;;5112949;27;20486;-64
2023/04/04 08:56:04;;;;;;;11.43;10.73;;;;;;;;;;5114764;27;20027;-65
2023/04/04 08:58:29;;;;;;;12.15;11.35;;;;;;;;;;5111942;27;20016;-65
2023/04/04 09:00:55;;;;;;;12.00;11.27;;;;;;;;;;5104748;27;20067;-65
2023/04/04 09:03:29;;;;;;;12.02;11.27;;;;;;;;;;5109702;27;20027;-63
2023/04/04 09:05:55;;;;;;;12.68;11.80;;;;;;;;;;5110834;27;20019;-64
2023/04/04 09:08:23;;;;;;;12.25;11.45;;;;;;;;;;5115818;27;20023;-63
2023/04/04 09:10:49;;;;;;;12.27;11.48;;;;;;;;;;5107981;27;20477;-64
2023/04/04 09:13:14;;;;;;;11.30;10.60;;;;;;;;;;5112583;27;20065;-63
2023/04/04 09:15:42;;;;;;;11.35;10.65;;;;;;;;;;5109778;27;20065;-63
2023/04/04 09:18:07;;;;;;;12.02;11.23;;;;;;;;;;5122255;27;20399;-65
2023/04/04 09:20:36;;;;;;;10.75;10.15;;;;;;;;;;5107134;27;20031;-65
2023/04/04 09:23:06;;;;;;;11.02;10.43;;;;;;;;;;5100038;27;20107;-65
2023/04/04 09:25:32;;;;;;;11.57;10.88;;;;;;;;;;5117109;27;20035;-66
2023/04/04 09:27:57;;;;;;;11.63;10.93;;;;;;;;;;5092297;28;20016;-64
2023/04/04 09:30:23;;;;;;;11.38;10.68;;;;;;;;;;5105703;27;20032;-66
2023/04/04 09:32:49;;;;;;;13.05;12.15;;;;;;;;;;5110863;27;20113;-65
2023/04/04 09:35:15;;;;;;;12.70;11.90;;;;;;;;;;5101348;28;20153;-65
2023/04/04 09:37:43;;;;;;;11.55;10.85;;;;;;;;;;5114539;27;20015;-64
2023/04/04 09:40:09;;;;;;;12.32;11.52;;;;;;;;;;5118275;27;20084;-62
2023/04/04 09:42:34;;;;;;;12.13;11.32;;;;;;;;;;5107369;27;20023;-63
2023/04/04 09:45:01;;;;;;;12.10;11.30;;;;;;;;;;5109479;27;20043;-64
2023/04/04 09:47:27;;;;;;;12.10;11.30;;;;;;;;;;5115319;27;20053;-64
2023/04/04 09:49:52;;;;;;;12.00;11.23;;;;;;;;;;5105064;27;20094;-63
2023/04/04 09:52:22;;;;;;;12.23;11.43;;;;;;;;;;5116428;27;20023;-63
2023/04/04 09:55:13;;;;;;;11.88;11.15;;;;;;;;;;5106886;27;20420;-62
2023/04/04 09:57:40;;;;;;;10.85;10.25;;;;;;;;;;5111389;27;20035;-62
2023/04/04 10:00:08;;;;;;;10.93;10.32;;;;;;;;;;5115476;27;20051;-62
2023/04/04 10:02:35;;;;;;;10.90;10.30;;;;;;;;;;5108986;27;20199;-62
2023/04/04 10:05:02;;;;;;;12.13;11.35;;;;;;;;;;5121696;27;20093;-62
2023/04/04 10:07:28;;;;;;;11.50;10.80;;;;;;;;;;5115715;27;20024;-62
2023/04/04 10:09:53;;;;;;;10.43;9.82;;;;;;;;;;5111452;27;20039;-62
2023/04/04 10:12:23;;;;;;;13.02;12.13;;;;;;;;;;5108011;27;20061;-63
2023/04/04 10:14:54;;;;;;;10.75;10.15;;;;;;;;;;5103005;27;20129;-61
2023/04/04 10:17:20;;;;;;;12.13;11.32;;;;;;;;;;5106652;27;20521;-63
2023/04/04 10:19:45;;;;;;;14.35;13.27;;;;;;;;;;5106242;27;20027;-65
2023/04/04 10:22:10;;;;;;;13.10;12.18;;;;;;;;;;5098370;27;20068;-63
2023/04/04 10:24:36;;;;;;;13.13;12.23;;;;;;;;;;5114813;27;20034;-65
2023/04/04 10:27:01;;;;;;;13.10;12.20;;;;;;;;;;5103113;27;20057;-64
2023/04/04 10:29:26;;;;;;;11.75;11.00;;;;;;;;;;5108094;27;20385;-63
2023/04/04 10:32:13;;;;;;;11.68;10.93;;;;;;;;;;5121899;27;20026;-64
2023/04/04 10:34:42;;;;;;;11.85;11.10;;;;;;;;;;5103800;27;20388;-65
2023/04/04 10:37:11;;;;;;;11.50;10.80;;;;;;;;;;5109500;27;20124;-65
2023/04/04 10:39:43;;;;;;;12.90;12.00;;;;;;;;;;5114762;27;20027;-63
2023/04/04 10:42:09;;;;;;;11.13;10.45;;;;;;;;;;5110228;27;20043;-63
2023/04/04 10:44:38;;;;;;;11.52;10.82;;;;;;;;;;5105291;27;20061;-63
2023/04/04 10:47:17;;;;;;;11.93;11.13;;;;;;;;;;5099185;27;20115;-64
2023/04/04 10:49:43;;;;;;;12.13;11.32;;;;;;;;;;5111112;27;20015;-65
2023/04/04 10:52:10;;;;;;;11.80;11.10;;;;;;;;;;5111461;27;20020;-65
2023/04/04 10:54:35;;;;;;;12.45;11.65;;;;;;;;;;5106926;27;20035;-64
2023/04/04 10:57:02;;;;;;;10.95;10.35;;;;;;;;;;5112887;27;20023;-64
2023/04/04 10:59:27;;;;;;;11.32;10.63;;;;;;;;;;5106637;27;20027;-66
2023/04/04 11:02:01;;;;;;;11.65;10.95;;;;;;;;;;5109628;27;20091;-64
2023/04/04 11:04:27;;;;;;;;;;;;;;;;;;5102013;27;20027;-64
2023/04/04 11:07:07;;;;;;;12.13;11.32;;;;;;;;;;5111590;27;19921;-64
2023/04/04 11:09:48;;;;;;;11.77;11.00;;;;;;;;;;5104168;28;20201;-67
2023/04/04 11:12:22;;;;;;;12.60;11.77;;;;;;;;;;5121755;27;20065;-64
2023/04/04 11:14:53;;;;;;;12.60;11.77;;;;;;;;;;5104906;27;20019;-64
2023/04/04 11:17:34;;;;;;;12.10;11.30;;;;;;;;;;5101293;27;20030;-64
2023/04/04 11:19:59;;;;;;;11.93;11.15;;;;;;;;;;5100381;27;20020;-63
2023/04/04 11:22:25;;;;;;;12.38;11.57;;;;;;;;;;5101069;28;20028;-64
2023/04/04 11:24:58;;;;;;;11.93;11.20;;;;;;;;;;5110612;28;20046;-66
2023/04/04 11:27:24;;;;;;;11.57;10.88;;;;;;;;;;5108370;28;20109;-63
2023/04/04 11:29:51;;;;;;;12.70;11.90;;;;;;;;;;5108308;28;20138;-63
2023/04/04 11:32:26;;;;;;;12.60;11.73;;;;;;;;;;5107652;28;20103;-62
2023/04/04 11:34:51;;;;;;;11.40;10.70;;;;;;;;;;5101933;28;20031;-63
2023/04/04 11:37:17;;;;;;;12.00;11.20;;;;;;;;;;5104125;28;20034;-65
2023/04/04 11:39:49;;;;;;;10.95;10.35;;;;;;;;;;5118294;28;20539;-63
2023/04/04 11:42:14;;;;;;;10.70;10.10;;;;;;;;;;5111707;28;20034;-64
2023/04/04 11:44:41;;;;;;;11.20;10.55;;;;;;;;;;5106631;28;20028;-65
2023/04/04 11:47:08;;;;;;;11.85;11.10;;;;;;;;;;5107754;28;20103;-64
2023/04/04 11:49:38;;;;;;;11.98;11.20;;;;;;;;;;5100120;28;20035;-65
2023/04/04 11:52:10;;;;;;;12.25;11.45;;;;;;;;;;5104166;28;20104;-64
2023/04/04 11:54:36;;;;;;;11.52;10.82;;;;;;;;;;5104266;28;20031;-67
2023/04/04 11:57:02;;;;;;;11.25;10.55;;;;;;;;;;5108714;28;20015;-67
2023/04/04 11:59:29;;;;;;;12.15;11.35;;;;;;;;;;5110621;28;20020;-67
2023/04/04 12:01:54;;;;;;;10.77;10.18;;;;;;;;;;5107905;28;20011;-63
2023/04/04 12:04:21;;;;;;;12.10;11.30;;;;;;;;;;5106301;28;20073;-65
2023/04/04 12:06:50;;;;;;;12.05;11.25;;;;;;;;;;5108518;28;20550;-65
2023/04/04 12:09:17;;;;;;;11.95;11.18;;;;;;;;;;5107693;28;20781;-64
2023/04/04 12:11:43;;;;;;;12.00;11.25;;;;;;;;;;5112644;27;20027;-65
2023/04/04 12:14:19;;;;;;;12.32;11.52;;;;;;;;;;5111439;28;20020;-65
2023/04/04 12:16:48;;;;;;;12.05;11.25;;;;;;;;;;5122423;27;20058;-66
2023/04/04 12:19:13;;;;;;;12.70;11.80;;;;;;;;;;5109836;27;20096;-65
2023/04/04 12:21:39;;;;;;;12.25;11.45;;;;;;;;;;5100252;27;20114;-65
2023/04/04 12:24:05;;;;;;;11.23;10.52;;;;;;;;;;5104895;27;20466;-64
2023/04/04 12:26:31;;;;;;;14.88;13.73;;;;;;;;;;5113865;27;20057;-64
2023/04/04 12:28:57;;;;;;;13.02;12.13;;;;;;;;;;5101193;27;20023;-63
2023/04/04 12:31:24;;;;;;;13.05;12.15;;;;;;;;;;5102627;27;20070;-64
2023/04/04 12:33:50;;;;;;;11.88;11.10;;;;;;;;;;5115001;27;20034;-64
2023/04/04 12:36:16;;;;;;;13.32;12.40;;;;;;;;;;5111708;27;20845;-65
2023/04/04 12:38:57;;;;;;;12.48;11.63;;;;;;;;;;5107674;27;20054;-66
2023/04/04 12:41:23;;;;;;;12.90;12.00;;;;;;;;;;5109753;27;20070;-67
2023/04/04 12:43:48;;;;;;;11.38;10.68;;;;;;;;;;5109496;27;20023;-64
2023/04/04 12:46:13;;;;;;;11.45;10.75;;;;;;;;;;5104075;28;20031;-64
2023/04/04 12:48:39;;;;;;;12.55;11.75;;;;;;;;;;5119857;27;20015;-65
2023/04/04 12:51:05;;;;;;;12.23;11.43;;;;;;;;;;5117810;27;20073;-64
2023/04/04 12:53:31;;;;;;;11.55;10.85;;;;;;;;;;5110048;28;20034;-63
2023/04/04 12:56:03;;;;;;;11.05;10.45;;;;;;;;;;5102378;28;20030;-62
2023/04/04 12:58:29;;;;;;;12.00;11.20;;;;;;;;;;5117761;27;20110;-64
2023/04/04 13:00:57;;;;;;;11.85;11.13;;;;;;;;;;5113278;27;20035;-64
2023/04/04 13:03:23;;;;;;;12.25;11.45;;;;;;;;;;5113853;27;20026;-64
2023/04/04 13:05:49;;;;;;;12.57;11.75;;;;;;;;;;5095213;28;20439;-67
2023/04/04 13:08:14;;;;;;;11.52;10.82;;;;;;;;;;5109485;27;20471;-63
2023/04/04 13:10:58;;;;;;;10.63;10.02;;;;;;;;;;5113142;27;20458;-65
2023/04/04 13:13:34;;;;;;;16.73;15.32;;;;;;;;;;5113118;27;20063;-65
2023/04/04 13:15:59;;;;;;;12.95;12.05;;;;;;;;;;5100372;27;20030;-65
2023/04/04 13:18:25;;;;;;;15.13;13.95;;;;;;;;;;5104928;27;20023;-62
2023/04/04 13:20:51;;;;;;;12.95;12.05;;;;;;;;;;5098991;27;20026;-63
2023/04/04 13:23:17;;;;;;;11.55;10.85;;;;;;;;;;5103496;27;20024;-63
2023/04/04 13:25:42;;;;;;;11.93;11.20;;;;;;;;;;5103302;27;20556;-64
2023/04/04 13:28:10;;;;;;;11.73;11.00;;;;;;;;;;5109750;27;20023;-63
2023/04/04 13:30:36;;;;;;;11.52;10.82;;;;;;;;;;5106898;27;20038;-64
2023/04/04 13:33:01;;;;;;;13.90;12.90;;;;;;;;;;5106221;27;20110;-63
2023/04/04 13:35:26;;;;;;;11.68;10.98;;;;;;;;;;5104035;27;20020;-64
2023/04/04 13:37:52;;;;;;;12.65;11.80;;;;;;;;;;5094804;27;20018;-63
2023/04/04 13:40:17;;;;;;;12.80;11.95;;;;;;;;;;5110390;27;20036;-64
2023/04/04 13:42:43;;;;;;;13.13;12.23;;;;;;;;;;5117167;27;20023;-67
2023/04/04 13:45:08;;;;;;;12.80;11.95;;;;;;;;;;5096583;27;20156;-62
2023/04/04 13:47:34;;;;;;;12.75;11.85;;;;;;;;;;5103074;27;20048;-63
2023/04/04 13:49:59;;;;;;;14.27;13.25;;;;;;;;;;5113806;27;20062;-62
2023/04/04 13:52:25;;;;;;;12.32;11.52;;;;;;;;;;5082646;28;20051;-63
2023/04/04 13:54:50;;;;;;;12.32;11.52;;;;;;;;;;5105495;27;20028;-63
2023/04/04 13:57:15;;;;;;;13.85;12.85;;;;;;;;;;5110223;27;20406;-65
2023/04/04 13:59:41;;;;;;;13.18;12.27;;;;;;;;;;5114122;27;20035;-63
2023/04/04 14:02:06;;;;;;;13.02;12.13;;;;;;;;;;5113546;27;20015;-62
2023/04/04 14:04:31;;;;;;;13.23;12.32;;;;;;;;;;5108782;27;20495;-65
2023/04/04 14:06:57;;;;;;;13.55;12.63;;;;;;;;;;5111662;27;20428;-63
2023/04/04 14:09:22;;;;;;;13.68;12.68;;;;;;;;;;5124170;27;20210;-63
2023/04/04 14:11:48;;;;;;;12.35;11.55;;;;;;;;;;5105613;27;20015;-65
2023/04/04 14:14:13;;;;;;;12.13;11.32;;;;;;;;;;5110894;27;20016;-63
2023/04/04 14:16:38;;;;;;;12.57;11.77;;;;;;;;;;5113185;27;20394;-63
2023/04/04 14:19:04;;;;;;;12.80;11.95;;;;;;;;;;5115156;27;20047;-62
2023/04/04 14:21:29;;;;;;;12.32;11.52;;;;;;;;;;5108003;27;20023;-63